sensor_id;sensor_type;location;lat;lon;timestamp;pressure;altitude;pressure_sealevel;temperature
60936;BMP280;46804;51.786;19.520;2022-07-15T00:00:10;98144.81;;;17.83
60936;BMP280;46804;51.786;19.520;2022-07-15T00:04:31;98139.00;;;17.68
60936;BMP280;46804;51.786;19.520;2022-07-15T00:08:31;98145.56;;;17.54
60936;BMP280;46804;51.786;19.520;2022-07-15T00:12:32;98151.16;;;17.44
60936;BMP280;46804;51.786;19.520;2022-07-15T00:16:32;98142.97;;;17.27
60936;BMP280;46804;51.786;19.520;2022-07-15T00:20:33;98158.59;;;17.25
60936;BMP280;46804;51.786;19.520;2022-07-15T00:24:34;98168.38;;;17.08
60936;BMP280;46804;51.786;19.520;2022-07-15T00:28:34;98174.31;;;17.05
60936;BMP280;46804;51.786;19.520;2022-07-15T00:32:36;98173.38;;;16.74
60936;BMP280;46804;51.786;19.520;2022-07-15T00:36:36;98171.56;;;16.70
60936;BMP280;46804;51.786;19.520;2022-07-15T00:40:44;98165.59;;;16.46
60936;BMP280;46804;51.786;19.520;2022-07-15T00:44:44;98171.34;;;16.27
60936;BMP280;46804;51.786;19.520;2022-07-15T00:48:45;98166.59;;;16.24
60936;BMP280;46804;51.786;19.520;2022-07-15T00:52:50;98173.19;;;16.13
60936;BMP280;46804;51.786;19.520;2022-07-15T00:56:55;98165.75;;;16.10
60936;BMP280;46804;51.786;19.520;2022-07-15T01:00:56;98176.38;;;15.83
60936;BMP280;46804;51.786;19.520;2022-07-15T01:04:58;98188.34;;;15.72
60936;BMP280;46804;51.786;19.520;2022-07-15T01:08:59;98183.81;;;15.55
60936;BMP280;46804;51.786;19.520;2022-07-15T01:13:00;98192.31;;;15.25
60936;BMP280;46804;51.786;19.520;2022-07-15T01:17:08;98187.91;;;15.34
60936;BMP280;46804;51.786;19.520;2022-07-15T01:21:09;98187.94;;;15.11
60936;BMP280;46804;51.786;19.520;2022-07-15T01:25:10;98189.00;;;15.10
60936;BMP280;46804;51.786;19.520;2022-07-15T01:29:10;98192.50;;;14.87
60936;BMP280;46804;51.786;19.520;2022-07-15T01:33:11;98193.69;;;14.81
60936;BMP280;46804;51.786;19.520;2022-07-15T01:37:12;98205.84;;;14.46
60936;BMP280;46804;51.786;19.520;2022-07-15T01:41:12;98210.50;;;14.35
60936;BMP280;46804;51.786;19.520;2022-07-15T01:45:13;98210.88;;;14.24
60936;BMP280;46804;51.786;19.520;2022-07-15T01:49:14;98197.31;;;14.44
60936;BMP280;46804;51.786;19.520;2022-07-15T01:53:27;98210.44;;;14.17
60936;BMP280;46804;51.786;19.520;2022-07-15T01:57:28;98215.56;;;14.14
60936;BMP280;46804;51.786;19.520;2022-07-15T02:01:29;98211.53;;;14.16
60936;BMP280;46804;51.786;19.520;2022-07-15T02:05:30;98210.34;;;13.99
60936;BMP280;46804;51.786;19.520;2022-07-15T02:09:30;98215.13;;;14.02
60936;BMP280;46804;51.786;19.520;2022-07-15T02:13:31;98217.03;;;13.96
60936;BMP280;46804;51.786;19.520;2022-07-15T02:17:31;98219.94;;;14.00
60936;BMP280;46804;51.786;19.520;2022-07-15T02:21:32;98220.72;;;14.05
60936;BMP280;46804;51.786;19.520;2022-07-15T02:25:33;98217.47;;;14.08
60936;BMP280;46804;51.786;19.520;2022-07-15T02:29:34;98228.44;;;14.07
60936;BMP280;46804;51.786;19.520;2022-07-15T02:33:35;98221.00;;;14.04
60936;BMP280;46804;51.786;19.520;2022-07-15T02:37:35;98214.03;;;13.98
60936;BMP280;46804;51.786;19.520;2022-07-15T02:41:36;98219.16;;;13.94
60936;BMP280;46804;51.786;19.520;2022-07-15T02:45:37;98221.88;;;13.90
60936;BMP280;46804;51.786;19.520;2022-07-15T02:49:38;98221.03;;;13.94
60936;BMP280;46804;51.786;19.520;2022-07-15T02:53:38;98229.63;;;13.91
60936;BMP280;46804;51.786;19.520;2022-07-15T02:57:39;98216.84;;;13.83
60936;BMP280;46804;51.786;19.520;2022-07-15T03:01:40;98223.84;;;13.74
60936;BMP280;46804;51.786;19.520;2022-07-15T03:05:41;98223.84;;;13.74
60936;BMP280;46804;51.786;19.520;2022-07-15T03:09:41;98230.50;;;13.82
60936;BMP280;46804;51.786;19.520;2022-07-15T03:13:42;98225.69;;;13.84
60936;BMP280;46804;51.786;19.520;2022-07-15T03:17:42;98227.63;;;13.73
60936;BMP280;46804;51.786;19.520;2022-07-15T03:21:43;98223.34;;;13.72
60936;BMP280;46804;51.786;19.520;2022-07-15T03:25:43;98229.22;;;13.74
60936;BMP280;46804;51.786;19.520;2022-07-15T03:29:44;98225.25;;;13.67
60936;BMP280;46804;51.786;19.520;2022-07-15T03:33:45;98233.75;;;13.74
60936;BMP280;46804;51.786;19.520;2022-07-15T03:37:45;98235.06;;;13.76
60936;BMP280;46804;51.786;19.520;2022-07-15T03:41:46;98236.13;;;13.80
60936;BMP280;46804;51.786;19.520;2022-07-15T03:45:49;98243.03;;;13.86
60936;BMP280;46804;51.786;19.520;2022-07-15T03:49:49;98253.59;;;14.06
60936;BMP280;46804;51.786;19.520;2022-07-15T03:53:50;98266.41;;;14.14
60936;BMP280;46804;51.786;19.520;2022-07-15T03:57:53;98256.69;;;14.23
60936;BMP280;46804;51.786;19.520;2022-07-15T04:01:55;98252.34;;;14.26
60936;BMP280;46804;51.786;19.520;2022-07-15T04:05:56;98264.06;;;14.30
60936;BMP280;46804;51.786;19.520;2022-07-15T04:09:56;98259.81;;;14.29
60936;BMP280;46804;51.786;19.520;2022-07-15T04:13:57;98266.38;;;14.42
60936;BMP280;46804;51.786;19.520;2022-07-15T04:17:57;98261.91;;;14.60
60936;BMP280;46804;51.786;19.520;2022-07-15T04:21:58;98244.38;;;14.73
60936;BMP280;46804;51.786;19.520;2022-07-15T04:25:59;98249.75;;;14.73
60936;BMP280;46804;51.786;19.520;2022-07-15T04:29:59;98245.56;;;14.85
60936;BMP280;46804;51.786;19.520;2022-07-15T04:34:00;98257.81;;;14.91
60936;BMP280;46804;51.786;19.520;2022-07-15T04:38:00;98241.69;;;14.96
60936;BMP280;46804;51.786;19.520;2022-07-15T04:42:01;98219.19;;;14.97
60936;BMP280;46804;51.786;19.520;2022-07-15T04:46:02;98207.38;;;15.21
60936;BMP280;46804;51.786;19.520;2022-07-15T04:50:03;98136.22;;;15.28
60936;BMP280;46804;51.786;19.520;2022-07-15T04:54:23;98158.84;;;15.41
60936;BMP280;46804;51.786;19.520;2022-07-15T04:58:23;98079.06;;;15.51
60936;BMP280;46804;51.786;19.520;2022-07-15T05:02:24;98019.19;;;15.56
60936;BMP280;46804;51.786;19.520;2022-07-15T05:06:24;98083.75;;;15.72
60936;BMP280;46804;51.786;19.520;2022-07-15T05:10:25;97961.22;;;15.86
60936;BMP280;46804;51.786;19.520;2022-07-15T05:14:25;97937.25;;;15.90
60936;BMP280;46804;51.786;19.520;2022-07-15T05:18:26;98008.69;;;15.86
60936;BMP280;46804;51.786;19.520;2022-07-15T05:22:27;98036.81;;;16.01
60936;BMP280;46804;51.786;19.520;2022-07-15T05:26:27;98018.34;;;16.00
60936;BMP280;46804;51.786;19.520;2022-07-15T05:30:28;98102.13;;;16.10
60936;BMP280;46804;51.786;19.520;2022-07-15T05:34:29;98090.25;;;16.30
60936;BMP280;46804;51.786;19.520;2022-07-15T05:38:29;98107.94;;;16.31
60936;BMP280;46804;51.786;19.520;2022-07-15T05:42:30;98145.72;;;16.21
60936;BMP280;46804;51.786;19.520;2022-07-15T05:46:30;98144.94;;;16.33
60936;BMP280;46804;51.786;19.520;2022-07-15T05:50:31;98115.69;;;16.45
60936;BMP280;46804;51.786;19.520;2022-07-15T05:54:31;98139.72;;;16.77
60936;BMP280;46804;51.786;19.520;2022-07-15T05:58:32;98076.13;;;16.99
60936;BMP280;46804;51.786;19.520;2022-07-15T06:02:32;98041.13;;;17.12
60936;BMP280;46804;51.786;19.520;2022-07-15T06:06:33;98068.72;;;17.39
60936;BMP280;46804;51.786;19.520;2022-07-15T06:10:34;98052.03;;;17.51
60936;BMP280;46804;51.786;19.520;2022-07-15T06:14:35;97961.91;;;17.62
60936;BMP280;46804;51.786;19.520;2022-07-15T06:18:35;98012.22;;;17.61
60936;BMP280;46804;51.786;19.520;2022-07-15T06:22:38;97964.94;;;18.07
60936;BMP280;46804;51.786;19.520;2022-07-15T06:26:39;97878.22;;;18.43
60936;BMP280;46804;51.786;19.520;2022-07-15T06:30:39;97913.72;;;18.62
60936;BMP280;46804;51.786;19.520;2022-07-15T06:34:40;97821.75;;;18.80
60936;BMP280;46804;51.786;19.520;2022-07-15T06:38:41;97868.66;;;19.05
60936;BMP280;46804;51.786;19.520;2022-07-15T06:42:41;97758.88;;;19.42
60936;BMP280;46804;51.786;19.520;2022-07-15T06:46:42;97823.78;;;19.74
60936;BMP280;46804;51.786;19.520;2022-07-15T06:50:43;97754.19;;;20.08
60936;BMP280;46804;51.786;19.520;2022-07-15T06:54:43;97673.81;;;20.37
60936;BMP280;46804;51.786;19.520;2022-07-15T06:58:44;97576.22;;;20.15
60936;BMP280;46804;51.786;19.520;2022-07-15T07:02:45;97594.44;;;19.54
60936;BMP280;46804;51.786;19.520;2022-07-15T07:06:46;98133.84;;;19.92
60936;BMP280;46804;51.786;19.520;2022-07-15T07:10:47;98188.59;;;20.18
60936;BMP280;46804;51.786;19.520;2022-07-15T07:14:47;98230.53;;;20.41
60936;BMP280;46804;51.786;19.520;2022-07-15T07:18:48;98232.63;;;20.89
60936;BMP280;46804;51.786;19.520;2022-07-15T07:22:51;98241.56;;;21.75
60936;BMP280;46804;51.786;19.520;2022-07-15T07:26:51;98249.13;;;22.02
60936;BMP280;46804;51.786;19.520;2022-07-15T07:30:52;98233.19;;;22.41
60936;BMP280;46804;51.786;19.520;2022-07-15T07:34:54;98239.38;;;22.41
60936;BMP280;46804;51.786;19.520;2022-07-15T07:38:55;98243.72;;;22.98
60936;BMP280;46804;51.786;19.520;2022-07-15T07:42:56;98234.66;;;22.38
60936;BMP280;46804;51.786;19.520;2022-07-15T07:46:56;98261.38;;;23.39
60936;BMP280;46804;51.786;19.520;2022-07-15T07:50:57;98257.50;;;23.40
60936;BMP280;46804;51.786;19.520;2022-07-15T07:54:58;98240.97;;;23.81
60936;BMP280;46804;51.786;19.520;2022-07-15T07:58:59;98231.28;;;24.07
60936;BMP280;46804;51.786;19.520;2022-07-15T08:03:00;98243.31;;;24.60
60936;BMP280;46804;51.786;19.520;2022-07-15T08:07:01;98240.78;;;24.13
60936;BMP280;46804;51.786;19.520;2022-07-15T08:11:01;98241.91;;;24.12
60936;BMP280;46804;51.786;19.520;2022-07-15T08:15:04;98276.53;;;23.76
60936;BMP280;46804;51.786;19.520;2022-07-15T08:19:05;98277.22;;;22.82
60936;BMP280;46804;51.786;19.520;2022-07-15T08:23:05;98272.41;;;22.99
60936;BMP280;46804;51.786;19.520;2022-07-15T08:27:07;98288.69;;;22.55
60936;BMP280;46804;51.786;19.520;2022-07-15T08:31:08;98287.53;;;22.24
60936;BMP280;46804;51.786;19.520;2022-07-15T08:35:09;98279.13;;;22.69
60936;BMP280;46804;51.786;19.520;2022-07-15T08:39:09;98275.19;;;22.47
60936;BMP280;46804;51.786;19.520;2022-07-15T08:43:12;98303.41;;;21.65
60936;BMP280;46804;51.786;19.520;2022-07-15T08:47:14;98307.50;;;21.42
60936;BMP280;46804;51.786;19.520;2022-07-15T08:51:15;98308.28;;;22.20
60936;BMP280;46804;51.786;19.520;2022-07-15T08:55:17;98315.66;;;22.11
60936;BMP280;46804;51.786;19.520;2022-07-15T08:59:18;98288.66;;;22.75
60936;BMP280;46804;51.786;19.520;2022-07-15T09:03:18;98284.44;;;23.33
60936;BMP280;46804;51.786;19.520;2022-07-15T09:07:19;98281.94;;;23.99
60936;BMP280;46804;51.786;19.520;2022-07-15T09:11:27;98273.81;;;23.28
60936;BMP280;46804;51.786;19.520;2022-07-15T09:15:29;98301.66;;;22.49
60936;BMP280;46804;51.786;19.520;2022-07-15T09:20:00;98277.31;;;23.17
60936;BMP280;46804;51.786;19.520;2022-07-15T09:24:15;98285.53;;;22.85
60936;BMP280;46804;51.786;19.520;2022-07-15T09:28:17;98320.19;;;22.48
60936;BMP280;46804;51.786;19.520;2022-07-15T09:32:18;98312.19;;;22.31
60936;BMP280;46804;51.786;19.520;2022-07-15T09:36:45;98329.97;;;22.20
60936;BMP280;46804;51.786;19.520;2022-07-15T09:40:48;98339.69;;;22.21
60936;BMP280;46804;51.786;19.520;2022-07-15T09:44:49;98340.97;;;22.55
60936;BMP280;46804;51.786;19.520;2022-07-15T09:48:51;98336.06;;;22.69
60936;BMP280;46804;51.786;19.520;2022-07-15T09:52:52;98330.03;;;22.52
60936;BMP280;46804;51.786;19.520;2022-07-15T09:56:53;98314.31;;;22.25
60936;BMP280;46804;51.786;19.520;2022-07-15T10:00:53;98315.66;;;21.91
60936;BMP280;46804;51.786;19.520;2022-07-15T10:04:55;98319.84;;;22.49
60936;BMP280;46804;51.786;19.520;2022-07-15T10:08:56;98320.16;;;23.00
60936;BMP280;46804;51.786;19.520;2022-07-15T10:13:16;98345.16;;;22.33
60936;BMP280;46804;51.786;19.520;2022-07-15T10:17:40;98320.50;;;22.78
60936;BMP280;46804;51.786;19.520;2022-07-15T10:22:09;98324.97;;;23.74
60936;BMP280;46804;51.786;19.520;2022-07-15T10:26:22;98323.50;;;23.76
60936;BMP280;46804;51.786;19.520;2022-07-15T10:30:26;98327.81;;;23.65
60936;BMP280;46804;51.786;19.520;2022-07-15T10:34:34;98342.63;;;23.91
60936;BMP280;46804;51.786;19.520;2022-07-15T10:38:37;98298.38;;;24.18
60936;BMP280;46804;51.786;19.520;2022-07-15T10:42:59;98325.38;;;24.23
60936;BMP280;46804;51.786;19.520;2022-07-15T10:55:36;98358.22;;;21.90
60936;BMP280;46804;51.786;19.520;2022-07-15T10:59:49;98380.88;;;21.86
60936;BMP280;46804;51.786;19.520;2022-07-15T11:04:22;98373.84;;;21.56
60936;BMP280;46804;51.786;19.520;2022-07-15T11:16:37;98366.06;;;22.12
60936;BMP280;46804;51.786;19.520;2022-07-15T11:20:38;98384.38;;;21.49
60936;BMP280;46804;51.786;19.520;2022-07-15T11:24:39;98385.31;;;21.90
60936;BMP280;46804;51.786;19.520;2022-07-15T11:28:54;98385.38;;;22.02
60936;BMP280;46804;51.786;19.520;2022-07-15T11:32:57;98360.91;;;22.39
60936;BMP280;46804;51.786;19.520;2022-07-15T11:36:58;98363.41;;;22.64
60936;BMP280;46804;51.786;19.520;2022-07-15T11:41:03;98378.03;;;22.31
60936;BMP280;46804;51.786;19.520;2022-07-15T11:45:36;98386.09;;;22.11
60936;BMP280;46804;51.786;19.520;2022-07-15T11:49:38;98392.03;;;22.13
60936;BMP280;46804;51.786;19.520;2022-07-15T11:53:43;98379.41;;;22.57
60936;BMP280;46804;51.786;19.520;2022-07-15T11:57:46;98371.69;;;22.27
60936;BMP280;46804;51.786;19.520;2022-07-15T12:06:12;98360.06;;;23.79
60936;BMP280;46804;51.786;19.520;2022-07-15T12:10:14;98348.50;;;23.70
60936;BMP280;46804;51.786;19.520;2022-07-15T12:14:21;98365.72;;;23.74
60936;BMP280;46804;51.786;19.520;2022-07-15T12:18:21;98347.47;;;23.39
60936;BMP280;46804;51.786;19.520;2022-07-15T12:22:22;98365.00;;;23.53
60936;BMP280;46804;51.786;19.520;2022-07-15T12:26:24;98359.78;;;23.48
60936;BMP280;46804;51.786;19.520;2022-07-15T12:30:35;98336.63;;;25.03
60936;BMP280;46804;51.786;19.520;2022-07-15T12:34:54;98323.59;;;26.37
60936;BMP280;46804;51.786;19.520;2022-07-15T12:39:13;98302.09;;;26.92
60936;BMP280;46804;51.786;19.520;2022-07-15T12:43:14;98332.97;;;25.72
60936;BMP280;46804;51.786;19.520;2022-07-15T12:47:15;98350.16;;;25.15
60936;BMP280;46804;51.786;19.520;2022-07-15T12:51:17;98366.47;;;24.99
60936;BMP280;46804;51.786;19.520;2022-07-15T12:55:29;98364.75;;;24.41
60936;BMP280;46804;51.786;19.520;2022-07-15T12:59:30;98360.63;;;25.13
60936;BMP280;46804;51.786;19.520;2022-07-15T13:03:30;98344.00;;;24.75
60936;BMP280;46804;51.786;19.520;2022-07-15T13:07:31;98369.47;;;23.93
60936;BMP280;46804;51.786;19.520;2022-07-15T13:11:31;98384.66;;;24.45
60936;BMP280;46804;51.786;19.520;2022-07-15T13:15:33;98354.03;;;25.29
60936;BMP280;46804;51.786;19.520;2022-07-15T13:19:33;98330.47;;;24.91
60936;BMP280;46804;51.786;19.520;2022-07-15T13:23:34;98340.69;;;25.39
60936;BMP280;46804;51.786;19.520;2022-07-15T13:27:35;98325.03;;;26.50
60936;BMP280;46804;51.786;19.520;2022-07-15T13:31:35;98323.38;;;26.64
60936;BMP280;46804;51.786;19.520;2022-07-15T13:35:36;98320.28;;;26.28
60936;BMP280;46804;51.786;19.520;2022-07-15T13:39:36;98369.31;;;24.64
60936;BMP280;46804;51.786;19.520;2022-07-15T13:43:37;98358.91;;;24.93
60936;BMP280;46804;51.786;19.520;2022-07-15T13:47:39;98356.25;;;24.69
60936;BMP280;46804;51.786;19.520;2022-07-15T13:51:39;98354.47;;;24.34
60936;BMP280;46804;51.786;19.520;2022-07-15T13:55:43;98370.59;;;23.56
60936;BMP280;46804;51.786;19.520;2022-07-15T13:59:43;98369.97;;;24.22
60936;BMP280;46804;51.786;19.520;2022-07-15T14:03:44;98388.91;;;23.59
60936;BMP280;46804;51.786;19.520;2022-07-15T14:07:44;98374.56;;;23.83
60936;BMP280;46804;51.786;19.520;2022-07-15T14:11:45;98372.84;;;24.02
60936;BMP280;46804;51.786;19.520;2022-07-15T14:15:45;98385.75;;;24.17
60936;BMP280;46804;51.786;19.520;2022-07-15T14:19:46;98383.34;;;24.03
60936;BMP280;46804;51.786;19.520;2022-07-15T14:23:48;98386.75;;;24.12
60936;BMP280;46804;51.786;19.520;2022-07-15T14:27:49;98393.81;;;23.78
60936;BMP280;46804;51.786;19.520;2022-07-15T14:31:49;98385.84;;;23.96
60936;BMP280;46804;51.786;19.520;2022-07-15T14:35:50;98394.44;;;24.22
60936;BMP280;46804;51.786;19.520;2022-07-15T14:39:50;98365.84;;;24.91
60936;BMP280;46804;51.786;19.520;2022-07-15T14:43:51;98379.06;;;24.65
60936;BMP280;46804;51.786;19.520;2022-07-15T14:47:51;98380.31;;;23.57
60936;BMP280;46804;51.786;19.520;2022-07-15T14:51:52;98380.22;;;23.22
60936;BMP280;46804;51.786;19.520;2022-07-15T14:55:52;98382.22;;;23.01
60936;BMP280;46804;51.786;19.520;2022-07-15T14:59:53;98383.22;;;22.97
60936;BMP280;46804;51.786;19.520;2022-07-15T15:03:53;98378.03;;;23.04
60936;BMP280;46804;51.786;19.520;2022-07-15T15:07:54;98393.94;;;22.73
60936;BMP280;46804;51.786;19.520;2022-07-15T15:11:54;98404.84;;;22.45
60936;BMP280;46804;51.786;19.520;2022-07-15T15:15:55;98396.66;;;22.33
60936;BMP280;46804;51.786;19.520;2022-07-15T15:19:55;98419.13;;;22.05
60936;BMP280;46804;51.786;19.520;2022-07-15T15:23:56;98426.75;;;21.82
60936;BMP280;46804;51.786;19.520;2022-07-15T15:27:56;98421.53;;;21.78
60936;BMP280;46804;51.786;19.520;2022-07-15T15:31:57;98426.13;;;21.77
60936;BMP280;46804;51.786;19.520;2022-07-15T15:35:58;98411.72;;;21.93
60936;BMP280;46804;51.786;19.520;2022-07-15T15:39:58;98425.47;;;21.51
60936;BMP280;46804;51.786;19.520;2022-07-15T15:43:59;98432.91;;;21.91
60936;BMP280;46804;51.786;19.520;2022-07-15T15:48:02;98417.88;;;21.74
60936;BMP280;46804;51.786;19.520;2022-07-15T15:52:04;98435.09;;;21.69
60936;BMP280;46804;51.786;19.520;2022-07-15T15:56:04;98430.09;;;21.34
60936;BMP280;46804;51.786;19.520;2022-07-15T16:00:06;98437.28;;;21.30
60936;BMP280;46804;51.786;19.520;2022-07-15T16:04:08;98448.00;;;21.02
60936;BMP280;46804;51.786;19.520;2022-07-15T16:08:08;98439.69;;;21.15
60936;BMP280;46804;51.786;19.520;2022-07-15T16:12:09;98435.59;;;20.84
60936;BMP280;46804;51.786;19.520;2022-07-15T16:16:10;98449.75;;;20.89
60936;BMP280;46804;51.786;19.520;2022-07-15T16:20:11;98454.84;;;20.82
60936;BMP280;46804;51.786;19.520;2022-07-15T16:24:11;98464.81;;;20.57
60936;BMP280;46804;51.786;19.520;2022-07-15T16:28:13;98438.09;;;20.30
60936;BMP280;46804;51.786;19.520;2022-07-15T16:32:13;98460.97;;;20.33
60936;BMP280;46804;51.786;19.520;2022-07-15T16:36:14;98454.00;;;20.48
60936;BMP280;46804;51.786;19.520;2022-07-15T16:40:15;98451.28;;;20.48
60936;BMP280;46804;51.786;19.520;2022-07-15T16:44:16;98461.97;;;20.45
60936;BMP280;46804;51.786;19.520;2022-07-15T16:48:16;98462.25;;;20.43
60936;BMP280;46804;51.786;19.520;2022-07-15T16:52:17;98450.03;;;20.54
60936;BMP280;46804;51.786;19.520;2022-07-15T16:56:17;98454.81;;;20.41
60936;BMP280;46804;51.786;19.520;2022-07-15T17:00:18;98459.72;;;20.39
60936;BMP280;46804;51.786;19.520;2022-07-15T17:04:19;98453.84;;;20.37
60936;BMP280;46804;51.786;19.520;2022-07-15T17:08:19;98450.69;;;19.49
60936;BMP280;46804;51.786;19.520;2022-07-15T17:12:20;98472.47;;;19.31
60936;BMP280;46804;51.786;19.520;2022-07-15T17:16:21;98459.16;;;19.35
60936;BMP280;46804;51.786;19.520;2022-07-15T17:20:21;98461.22;;;19.38
60936;BMP280;46804;51.786;19.520;2022-07-15T17:24:22;98462.50;;;19.32
60936;BMP280;46804;51.786;19.520;2022-07-15T17:28:22;98456.19;;;19.14
60936;BMP280;46804;51.786;19.520;2022-07-15T17:32:23;98465.16;;;19.02
60936;BMP280;46804;51.786;19.520;2022-07-15T17:36:23;98482.31;;;19.06
60936;BMP280;46804;51.786;19.520;2022-07-15T17:40:24;98473.44;;;18.92
60936;BMP280;46804;51.786;19.520;2022-07-15T17:44:24;98470.44;;;18.71
60936;BMP280;46804;51.786;19.520;2022-07-15T17:48:25;98468.50;;;18.50
60936;BMP280;46804;51.786;19.520;2022-07-15T17:52:26;98469.53;;;18.41
60936;BMP280;46804;51.786;19.520;2022-07-15T17:56:26;98471.03;;;18.34
60936;BMP280;46804;51.786;19.520;2022-07-15T18:00:27;98482.91;;;18.33
60936;BMP280;46804;51.786;19.520;2022-07-15T18:04:28;98491.28;;;18.04
60936;BMP280;46804;51.786;19.520;2022-07-15T18:08:29;98486.94;;;18.08
60936;BMP280;46804;51.786;19.520;2022-07-15T18:12:29;98493.06;;;17.96
60936;BMP280;46804;51.786;19.520;2022-07-15T18:16:30;98499.25;;;17.96
60936;BMP280;46804;51.786;19.520;2022-07-15T18:20:31;98493.06;;;17.96
60936;BMP280;46804;51.786;19.520;2022-07-15T18:24:31;98500.66;;;17.80
60936;BMP280;46804;51.786;19.520;2022-07-15T18:28:32;98506.50;;;17.56
60936;BMP280;46804;51.786;19.520;2022-07-15T18:32:32;98512.28;;;17.49
60936;BMP280;46804;51.786;19.520;2022-07-15T18:36:33;98514.56;;;17.42
60936;BMP280;46804;51.786;19.520;2022-07-15T18:40:34;98525.44;;;17.19
60936;BMP280;46804;51.786;19.520;2022-07-15T18:44:34;98522.97;;;17.04
60936;BMP280;46804;51.786;19.520;2022-07-15T18:48:35;98530.50;;;17.02
60936;BMP280;46804;51.786;19.520;2022-07-15T18:52:36;98531.34;;;17.03
60936;BMP280;46804;51.786;19.520;2022-07-15T18:56:37;98534.38;;;16.97
60936;BMP280;46804;51.786;19.520;2022-07-15T19:00:38;98544.63;;;16.76
60936;BMP280;46804;51.786;19.520;2022-07-15T19:04:38;98551.56;;;16.59
60936;BMP280;46804;51.786;19.520;2022-07-15T19:08:39;98554.84;;;16.56
60936;BMP280;46804;51.786;19.520;2022-07-15T19:12:40;98556.88;;;16.46
60936;BMP280;46804;51.786;19.520;2022-07-15T19:16:41;98564.75;;;16.37
60936;BMP280;46804;51.786;19.520;2022-07-15T19:20:42;98571.75;;;16.15
60936;BMP280;46804;51.786;19.520;2022-07-15T19:24:42;98562.41;;;16.08
60936;BMP280;46804;51.786;19.520;2022-07-15T19:28:43;98566.75;;;16.04
60936;BMP280;46804;51.786;19.520;2022-07-15T19:32:43;98576.28;;;15.92
60936;BMP280;46804;51.786;19.520;2022-07-15T19:36:44;98580.66;;;15.83
60936;BMP280;46804;51.786;19.520;2022-07-15T19:40:45;98578.66;;;15.70
60936;BMP280;46804;51.786;19.520;2022-07-15T19:44:45;98592.16;;;15.60
60936;BMP280;46804;51.786;19.520;2022-07-15T19:48:46;98594.69;;;15.47
60936;BMP280;46804;51.786;19.520;2022-07-15T19:52:46;98596.97;;;15.30
60936;BMP280;46804;51.786;19.520;2022-07-15T19:56:47;98595.72;;;15.18
60936;BMP280;46804;51.786;19.520;2022-07-15T20:00:49;98603.00;;;15.12
60936;BMP280;46804;51.786;19.520;2022-07-15T20:04:50;98609.78;;;14.95
60936;BMP280;46804;51.786;19.520;2022-07-15T20:08:51;98614.94;;;14.87
60936;BMP280;46804;51.786;19.520;2022-07-15T20:12:52;98609.59;;;14.82
60936;BMP280;46804;51.786;19.520;2022-07-15T20:16:52;98614.50;;;14.65
60936;BMP280;46804;51.786;19.520;2022-07-15T20:20:56;98628.75;;;14.56
60936;BMP280;46804;51.786;19.520;2022-07-15T20:24:57;98622.63;;;14.55
60936;BMP280;46804;51.786;19.520;2022-07-15T20:28:58;98634.13;;;14.46
60936;BMP280;46804;51.786;19.520;2022-07-15T20:32:58;98632.03;;;14.33
60936;BMP280;46804;51.786;19.520;2022-07-15T20:37:00;98634.47;;;14.29
60936;BMP280;46804;51.786;19.520;2022-07-15T20:41:00;98633.41;;;14.26
60936;BMP280;46804;51.786;19.520;2022-07-15T20:45:01;98643.66;;;14.04
60936;BMP280;46804;51.786;19.520;2022-07-15T20:49:02;98633.47;;;14.06
60936;BMP280;46804;51.786;19.520;2022-07-15T20:53:05;98641.00;;;13.99
60936;BMP280;46804;51.786;19.520;2022-07-15T20:57:06;98638.59;;;13.88
60936;BMP280;46804;51.786;19.520;2022-07-15T21:01:07;98637.47;;;13.93
60936;BMP280;46804;51.786;19.520;2022-07-15T21:05:08;98640.97;;;13.89
60936;BMP280;46804;51.786;19.520;2022-07-15T21:09:09;98643.41;;;13.86
60936;BMP280;46804;51.786;19.520;2022-07-15T21:13:09;98640.44;;;13.67
60936;BMP280;46804;51.786;19.520;2022-07-15T21:17:10;98654.88;;;13.71
60936;BMP280;46804;51.786;19.520;2022-07-15T21:21:11;98649.53;;;13.61
60936;BMP280;46804;51.786;19.520;2022-07-15T21:25:12;98646.63;;;13.53
60936;BMP280;46804;51.786;19.520;2022-07-15T21:29:30;98649.56;;;13.52
60936;BMP280;46804;51.786;19.520;2022-07-15T21:33:31;98649.28;;;13.43
60936;BMP280;46804;51.786;19.520;2022-07-15T21:37:32;98654.88;;;13.37
60936;BMP280;46804;51.786;19.520;2022-07-15T21:41:32;98648.47;;;13.23
60936;BMP280;46804;51.786;19.520;2022-07-15T21:45:33;98652.44;;;13.16
60936;BMP280;46804;51.786;19.520;2022-07-15T21:49:35;98652.19;;;13.12
60936;BMP280;46804;51.786;19.520;2022-07-15T21:53:35;98658.34;;;13.13
60936;BMP280;46804;51.786;19.520;2022-07-15T21:57:36;98661.81;;;13.03
60936;BMP280;46804;51.786;19.520;2022-07-15T22:01:37;98663.88;;;12.87
60936;BMP280;46804;51.786;19.520;2022-07-15T22:05:38;98663.09;;;12.91
60936;BMP280;46804;51.786;19.520;2022-07-15T22:09:39;98674.00;;;12.80
60936;BMP280;46804;51.786;19.520;2022-07-15T22:13:40;98673.44;;;12.73
60936;BMP280;46804;51.786;19.520;2022-07-15T22:17:41;98669.66;;;12.64
60936;BMP280;46804;51.786;19.520;2022-07-15T22:21:42;98670.72;;;12.63
60936;BMP280;46804;51.786;19.520;2022-07-15T22:25:42;98672.28;;;12.54
60936;BMP280;46804;51.786;19.520;2022-07-15T22:29:43;98664.00;;;12.51
60936;BMP280;46804;51.786;19.520;2022-07-15T22:33:43;98675.19;;;12.48
60936;BMP280;46804;51.786;19.520;2022-07-15T22:37:44;98679.91;;;12.31
60936;BMP280;46804;51.786;19.520;2022-07-15T22:41:44;98672.72;;;12.31
60936;BMP280;46804;51.786;19.520;2022-07-15T22:45:45;98676.72;;;12.34
60936;BMP280;46804;51.786;19.520;2022-07-15T22:49:45;98668.16;;;12.27
60936;BMP280;46804;51.786;19.520;2022-07-15T22:53:46;98674.50;;;12.16
60936;BMP280;46804;51.786;19.520;2022-07-15T22:57:47;98671.50;;;12.08
60936;BMP280;46804;51.786;19.520;2022-07-15T23:01:47;98673.09;;;12.09
60936;BMP280;46804;51.786;19.520;2022-07-15T23:05:48;98668.84;;;12.08
60936;BMP280;46804;51.786;19.520;2022-07-15T23:09:48;98677.34;;;12.05
60936;BMP280;46804;51.786;19.520;2022-07-15T23:13:49;98671.19;;;11.99